sensor_id;sensor_type;location;lat;lon;timestamp;P1;P4;P2;P0;N10;N4;N25;N1;N05;TS
45310;SPS30;68264;51.540;5.854;2023-04-03T00:11:44;5.17;;7.97;7.69;6472.9;;3195.3;3166.3;6472.6;
45310;SPS30;68264;51.540;5.854;2023-04-03T00:26:02;6.07;;8.78;8.51;7614.6;;4336.9;4304.6;7614.3;
45310;SPS30;68264;51.540;5.854;2023-04-03T00:39:51;5.83;;8.57;8.29;7339.3;;4061.7;4030.1;7339.0;
45310;SPS30;68264;51.540;5.854;2023-04-03T00:54:09;6.13;;8.78;8.46;7579.8;;4300.4;4257.7;7579.2;
45310;SPS30;68264;51.540;5.854;2023-04-03T01:08:28;5.65;;8.4;8.13;7113.0;;3835.4;3804.5;7112.7;
45310;SPS30;68264;51.540;5.854;2023-04-03T01:22:17;5.77;;8.51;8.24;7259.1;;3981.5;3950.2;7258.8;
45310;SPS30;68264;51.540;5.854;2023-04-03T01:36:15;6.19;;8.84;8.51;7625.7;;4346.5;4304.5;7625.2;
45310;SPS30;68264;51.540;5.854;2023-04-03T01:50:33;4.93;;7.75;7.53;6203.4;;2925.9;2897.7;6203.2;
45310;SPS30;68264;51.540;5.854;2023-04-03T02:04:52;4.51;;7.37;7.15;5645.1;;2367.6;2341.1;5644.9;
45310;SPS30;68264;51.540;5.854;2023-04-03T02:18:41;6.67;;8.78;8.08;6974.8;;3682.8;3566.9;6972.3;
45310;SPS30;68264;51.540;5.854;2023-04-03T02:32:40;6.19;;8.78;8.4;7475.7;;4194.8;4143.5;7474.9;
45310;SPS30;68264;51.540;5.854;2023-04-03T02:46:29;6.43;;9.11;8.84;8095.8;;4818.2;4784.4;8095.5;
45310;SPS30;68264;51.540;5.854;2023-04-03T03:00:17;6.01;;8.73;8.46;7561.7;;4284.1;4251.9;7561.4;
45310;SPS30;68264;51.540;5.854;2023-04-03T03:14:06;4.99;;7.8;7.53;6231.7;;2954.2;2925.9;6231.4;
45310;SPS30;68264;51.540;5.854;2023-04-03T03:28:05;4.81;;7.64;7.37;6002.2;;2724.7;2697.1;6001.9;
45310;SPS30;68264;51.540;5.854;2023-04-03T03:41:53;4.45;;7.31;7.09;5555.8;;2278.4;2252.1;5555.6;
45310;SPS30;68264;51.540;5.854;2023-04-03T03:55:42;4.45;;7.31;7.09;5577.4;;2299.9;2273.6;5577.1;
45310;SPS30;68264;51.540;5.854;2023-04-03T04:09:31;3.6;;6.55;6.39;4488.6;;1211.2;1188.1;4488.4;
45310;SPS30;68264;51.540;5.854;2023-04-03T04:23:49;2.46;;5.51;5.35;9550.7;;6273.4;6254.8;9550.6;
45310;SPS30;68264;51.540;5.854;2023-04-03T04:38:37;1.74;;4.86;4.75;8631.4;;5354.2;5338.3;8631.3;
45310;SPS30;68264;51.540;5.854;2023-04-03T04:52:56;2.04;;5.13;4.97;8964.9;;5687.6;5670.7;8964.7;
45310;SPS30;68264;51.540;5.854;2023-04-03T05:06:45;1.62;;4.75;4.64;8487.5;;5210.3;5194.8;8487.4;
45310;SPS30;68264;51.540;5.854;2023-04-03T05:21:02;1.32;;4.48;4.37;8103.3;;4826.1;4811.8;8103.2;
45310;SPS30;68264;51.540;5.854;2023-04-03T05:35:21;0.9;;4.1;3.99;7503.8;;4226.7;4214.1;7503.7;
45310;SPS30;68264;51.540;5.854;2023-04-03T05:49:10;0.72;;3.93;3.82;7288.4;;4011.3;3999.4;7288.3;
45310;SPS30;68264;51.540;5.854;2023-04-03T06:03:09;1.32;;4.1;3.71;7144.1;;3858.0;3792.7;7142.6;
45310;SPS30;68264;51.540;5.854;2023-04-03T06:17:08;0.24;;3.5;3.39;6689.7;;3412.6;3402.5;6689.6;
45310;SPS30;68264;51.540;5.854;2023-04-03T06:31:26;0.3;;3.5;3.39;6643.7;;3365.2;3347.2;6643.4;
45310;SPS30;68264;51.540;5.854;2023-04-03T06:45:45;0.3;;3.44;3.28;6502.2;;3222.8;3199.2;6501.7;
45310;SPS30;68264;51.540;5.854;2023-04-03T06:59:33;0.78;;3.93;3.82;7256.8;;3978.4;3958.8;7256.4;
45310;SPS30;68264;51.540;5.854;2023-04-03T07:13:22;0.01;;3.06;2.95;6022.0;;2745.0;2736.8;6021.9;
45310;SPS30;68264;51.540;5.854;2023-04-03T07:27:50;0.01;;2.9;2.79;5803.7;;2525.3;2509.6;5803.4;
45310;SPS30;68264;51.540;5.854;2023-04-03T07:43:10;0.01;;2.95;2.79;5793.5;;2514.7;2496.7;5793.1;
45310;SPS30;68264;51.540;5.854;2023-04-03T07:58:10;0.01;;2.79;2.68;5642.1;;2364.2;2352.2;5641.9;
45310;SPS30;68264;51.540;5.854;2023-04-03T08:11:58;0.01;;2.73;2.62;5556.6;;2278.0;2261.3;5556.3;
45310;SPS30;68264;51.540;5.854;2023-04-03T08:25:57;0.01;;2.62;2.52;5392.3;;2113.4;2095.3;5392.0;
45310;SPS30;68264;51.540;5.854;2023-04-03T08:39:46;0.01;;2.62;2.41;5170.9;;1888.4;1850.2;5170.0;
45310;SPS30;68264;51.540;5.854;2023-04-03T08:54:04;0.01;;2.35;2.3;5022.2;;1744.4;1734.2;5022.0;
45310;SPS30;68264;51.540;5.854;2023-04-03T09:09:24;0.01;;2.52;2.24;4932.5;;1646.8;1589.7;4931.1;
45310;SPS30;68264;51.540;5.854;2023-04-03T09:24:23;0.01;;2.46;2.08;4687.0;;1397.7;1319.8;4685.1;
45310;SPS30;68264;51.540;5.854;2023-04-03T09:38:12;0.01;;2.19;1.86;4389.6;;1102.6;1039.3;4388.0;
45310;SPS30;68264;51.540;5.854;2023-04-03T09:52:01;0.01;;1.86;1.75;4197.4;;916.4;889.4;4196.7;
45310;SPS30;68264;51.540;5.854;2023-04-03T10:05:49;0.01;;1.75;1.7;4147.8;;870.2;863.4;4147.7;
45310;SPS30;68264;51.540;5.854;2023-04-03T10:19:38;0.01;;1.92;1.64;4098.9;;814.3;765.8;4097.7;
45310;SPS30;68264;51.540;5.854;2023-04-03T10:33:27;0.01;;1.7;1.59;3970.8;;690.7;669.2;3970.2;
45310;SPS30;68264;51.540;5.854;2023-04-03T10:47:15;0.01;;1.7;1.54;3951.6;;671.2;648.3;3951.0;
45310;SPS30;68264;51.540;5.854;2023-04-03T11:01:04;0.01;;1.81;1.64;4056.6;;774.6;742.2;4055.8;
45310;SPS30;68264;51.540;5.854;2023-04-03T11:14:53;0.01;;1.7;1.64;4098.9;;822.0;819.6;4098.8;
45310;SPS30;68264;51.540;5.854;2023-04-03T11:28:41;0.01;;1.7;1.64;4037.1;;757.9;741.4;4036.8;
45310;SPS30;68264;51.540;5.854;2023-04-03T11:42:59;0.01;;1.81;1.7;4195.3;;916.8;904.4;4195.0;
45310;SPS30;68264;51.540;5.854;2023-04-03T11:57:47;0.01;;1.86;1.75;4277.8;;998.3;979.8;4277.4;
45310;SPS30;68264;51.540;5.854;2023-04-03T12:12:06;0.01;;2.13;1.92;4474.0;;1191.2;1152.6;4473.0;
45310;SPS30;68264;51.540;5.854;2023-04-03T12:25:55;0.01;;1.75;1.75;4231.7;;954.9;952.0;4231.7;
45310;SPS30;68264;51.540;5.854;2023-04-03T12:40:13;0.01;;2.24;2.08;4696.6;;1415.6;1387.2;4695.9;
45310;SPS30;68264;51.540;5.854;2023-04-03T12:54:32;0.01;;2.08;2.08;4696.6;;1419.7;1415.5;4696.6;
45310;SPS30;68264;51.540;5.854;2023-04-03T13:08:21;0.01;;2.13;2.08;4734.0;;1457.1;1452.8;4734.0;
45310;SPS30;68264;51.540;5.854;2023-04-03T13:23:11;0.01;;1.92;1.81;4342.7;;1064.3;1052.1;4342.5;
45310;SPS30;68264;51.540;5.854;2023-04-03T13:38:39;0.01;;2.13;1.92;4478.8;;1196.4;1160.3;4477.9;
45310;SPS30;68264;51.540;5.854;2023-04-03T13:52:58;0.01;;2.13;2.13;4777.2;;1500.3;1495.8;4777.2;
45310;SPS30;68264;51.540;5.854;2023-04-03T14:06:57;0.01;;2.08;2.03;4664.9;;1387.8;1382.9;4664.8;
45310;SPS30;68264;51.540;5.854;2023-04-03T14:20:46;0.01;;2.46;2.08;4724.4;;1436.5;1366.9;4722.6;
45310;SPS30;68264;51.540;5.854;2023-04-03T14:34:34;0.01;;2.13;2.08;4683.8;;1405.2;1391.2;4683.4;
45310;SPS30;68264;51.540;5.854;2023-04-03T14:48:23;0.01;;2.08;1.97;4538.6;;1258.8;1238.0;4538.1;
45310;SPS30;68264;51.540;5.854;2023-04-03T15:02:12;0.01;;2.08;2.03;4654.7;;1377.6;1372.6;4654.6;
45310;SPS30;68264;51.540;5.854;2023-04-03T15:16:11;0.01;;2.3;2.19;4871.9;;1593.3;1578.6;4871.6;
45310;SPS30;68264;51.540;5.854;2023-04-03T15:33:41;0.01;;2.3;2.13;4774.2;;1493.4;1466.5;4773.5;
45310;SPS30;68264;51.540;5.854;2023-04-03T15:51:21;0.01;;2.19;2.08;4736.6;;1458.6;1447.9;4736.4;
45310;SPS30;68264;51.540;5.854;2023-04-03T16:06:11;0.01;;2.19;2.13;4817.0;;1540.1;1535.5;4817.0;
45310;SPS30;68264;51.540;5.854;2023-04-03T16:21:40;0.01;;2.08;2.03;4640.4;;1363.4;1359.0;4640.4;
45310;SPS30;68264;51.540;5.854;2023-04-03T16:37:00;0.01;;2.35;2.19;4855.2;;1573.3;1539.1;4854.4;
45310;SPS30;68264;51.540;5.854;2023-04-03T16:52:00;0.01;;2.03;1.97;4599.3;;1322.4;1318.5;4599.3;
45310;SPS30;68264;51.540;5.854;2023-04-03T17:05:58;0.01;;2.08;2.08;4698.6;;1421.7;1417.5;4698.6;
45310;SPS30;68264;51.540;5.854;2023-04-03T17:19:47;0.01;;2.41;2.03;4638.2;;1349.7;1276.8;4636.4;
45310;SPS30;68264;51.540;5.854;2023-04-03T17:34:05;0.01;;2.52;2.35;5108.0;;1827.3;1799.4;5107.4;
45310;SPS30;68264;51.540;5.854;2023-04-03T17:48:24;0.01;;2.41;2.19;4913.6;;1632.4;1602.1;4912.9;
45310;SPS30;68264;51.540;5.854;2023-04-03T18:03:46;0.01;;2.46;2.3;5078.6;;1799.0;1777.6;5078.2;
45310;SPS30;68264;51.540;5.854;2023-04-03T18:19:16;0.01;;2.73;2.41;5186.4;;1900.4;1841.0;5184.9;
45310;SPS30;68264;51.540;5.854;2023-04-03T18:33:04;0.01;;2.3;2.24;4975.0;;1697.6;1689.8;4974.8;
45310;SPS30;68264;51.540;5.854;2023-04-03T18:46:53;0.01;;2.73;2.41;5227.0;;1942.4;1891.5;5225.8;
45310;SPS30;68264;51.540;5.854;2023-04-03T19:00:42;0.01;;2.52;2.3;5082.9;;1800.6;1763.2;5082.1;
45310;SPS30;68264;51.540;5.854;2023-04-03T19:14:41;0.01;;2.95;2.84;5831.5;;2553.3;2538.8;5831.2;
45310;SPS30;68264;51.540;5.854;2023-04-03T19:28:29;0.01;;2.9;2.84;5816.5;;2539.2;2530.0;5816.4;
45310;SPS30;68264;51.540;5.854;2023-04-03T19:42:28;0.01;;3.01;2.73;5717.8;;2434.8;2392.3;5716.8;
45310;SPS30;68264;51.540;5.854;2023-04-03T19:56:46;0.01;;2.73;2.68;5588.9;;2311.2;2300.1;5588.7;
45310;SPS30;68264;51.540;5.854;2023-04-03T20:11:05;0.01;;2.9;2.79;5761.2;;2482.0;2461.5;5760.8;
45310;SPS30;68264;51.540;5.854;2023-04-03T20:24:54;0.12;;3.39;3.28;6479.6;;3202.3;3191.6;6479.4;
45310;SPS30;68264;51.540;5.854;2023-04-03T20:39:43;0.0;;3.28;3.17;6305.4;;3027.2;3011.7;6305.1;
45310;SPS30;68264;51.540;5.854;2023-04-03T20:54:43;0.78;;3.66;3.28;6534.6;;3249.2;3190.1;6533.2;
45310;SPS30;68264;51.540;5.854;2023-04-03T21:23:20;0.36;;3.28;2.95;5994.5;;2709.2;2651.9;5993.1;
45310;SPS30;68264;51.540;5.854;2023-04-03T21:37:08;0.24;;3.44;3.28;6525.4;;3246.9;3228.4;6525.1;
45310;SPS30;68264;51.540;5.854;2023-04-03T21:50:57;0.36;;3.61;3.55;6878.1;;3601.0;3590.3;6878.0;
45310;SPS30;68264;51.540;5.854;2023-04-03T22:04:46;0.3;;3.44;3.28;6520.6;;3241.3;3217.8;6520.2;
45310;SPS30;68264;51.540;5.854;2023-04-03T22:18:34;0.24;;3.5;3.39;6616.1;;3338.3;3324.1;6615.9;
45310;SPS30;68264;51.540;5.854;2023-04-03T22:32:23;0.12;;3.39;3.28;6503.9;;3226.8;3216.8;6503.8;
45310;SPS30;68264;51.540;5.854;2023-04-03T22:46:12;0.01;;3.01;2.95;5982.5;;2705.4;2697.4;5982.4;
45310;SPS30;68264;51.540;5.854;2023-04-03T23:00:00;0.12;;3.39;3.28;6477.7;;3200.0;3187.0;6477.5;
45310;SPS30;68264;51.540;5.854;2023-04-03T23:14:18;0.3;;3.39;3.17;6355.6;;3074.6;3041.9;6354.9;
45310;SPS30;68264;51.540;5.854;2023-04-03T23:30:10;0.01;;3.17;3.06;6167.1;;2889.4;2877.2;6166.9;
45310;SPS30;68264;51.540;5.854;2023-04-03T23:45:40;0.6;;3.82;3.71;7143.7;;3866.6;3855.1;7143.6;
45310;SPS30;68264;51.540;5.854;2023-04-03T23:59:29;0.36;;3.61;3.5;6840.6;;3563.6;3553.0;6840.5;
